Terminal Aerodrome Forecast
Issued by NWS

Home | Current Version | Previous Version | Text Only | Print | Product List | Glossary Off
Versions: 1 2 3 4 5 6 7 8 9 10 11 12 13 14 15 16 17 18 19

000
FTUS43 KUNR 242300
TAFGCC
TAF
KGCC 242327Z 2500/2524 24014KT P6SM BKN150
     FM250500 30013KT 2SM -SN BR OVC011
     FM250900 31018KT 1SM -SN OVC007=

USA.gov is the U.S. government's official web portal to all federal, state and local government web resources and services.